Time;durP1;ratioP1;P1;durP2;ratioP2;P2;SDS_P1;SDS_P2;PMS_P1;PMS_P2;Temp;Humidity;BMP_temperature;BMP_pressure;BME280_temperature;BME280_humidity;BME280_pressure;Samples;Min_cycle;Max_cycle;Signal;HPM_P1;HPM_P2
2022/01/03 00:00:09;;;;;;;3.47;1.75;;;;;;;;;;4965441;28;20066;-78
2022/01/03 00:02:34;;;;;;;3.05;1.70;;;;;;;;;;4954450;28;20583;-78
2022/01/03 00:05:00;;;;;;;4.13;1.92;;;;;;;;;;4958529;28;20106;-78
2022/01/03 00:07:26;;;;;;;5.43;2.83;;;;;;;;;;4961434;28;20023;-78
2022/01/03 00:09:51;;;;;;;3.55;1.50;;;;;;;;;;4964501;28;20359;-80
2022/01/03 00:12:19;;;;;;;3.53;1.63;;;;;;;;;;4971384;28;20058;-78
2022/01/03 00:14:44;;;;;;;4.32;1.63;;;;;;;;;;4970410;28;20126;-79
2022/01/03 00:17:09;;;;;;;5.50;1.80;;;;;;;;;;4967805;28;20480;-78
2022/01/03 00:19:34;;;;;;;2.60;1.40;;;;;;;;;;4971446;28;20023;-77
2022/01/03 00:22:04;;;;;;;3.90;1.60;;;;;;;;;;4966916;28;20457;-77
2022/01/03 00:24:31;;;;;;;2.72;1.48;;;;;;;;;;4956884;28;20170;-78
2022/01/03 00:27:00;;;;;;;4.93;1.60;;;;;;;;;;4964767;28;20149;-78
2022/01/03 00:29:27;;;;;;;2.90;1.60;;;;;;;;;;4964322;28;20042;-80
2022/01/03 00:31:54;;;;;;;3.92;1.48;;;;;;;;;;4972643;28;20049;-79
2022/01/03 00:34:20;;;;;;;4.18;1.42;;;;;;;;;;4965038;28;20482;-76
2022/01/03 00:36:49;;;;;;;3.08;1.50;;;;;;;;;;4968373;28;20056;-78
2022/01/03 00:39:14;;;;;;;4.72;1.80;;;;;;;;;;4964002;28;20089;-78
2022/01/03 00:41:40;;;;;;;3.83;1.58;;;;;;;;;;4969582;28;20870;-80
2022/01/03 00:44:06;;;;;;;5.82;1.60;;;;;;;;;;4972482;28;20022;-79
2022/01/03 00:46:32;;;;;;;3.35;1.67;;;;;;;;;;4972666;28;20030;-79
2022/01/03 00:48:59;;;;;;;2.80;1.35;;;;;;;;;;4971340;28;20033;-79
2022/01/03 00:51:24;;;;;;;5.20;1.65;;;;;;;;;;4969917;28;20113;-77
2022/01/03 00:53:50;;;;;;;4.28;1.65;;;;;;;;;;4969002;28;20109;-78
2022/01/03 00:56:18;;;;;;;3.83;1.77;;;;;;;;;;4968688;28;20035;-78
2022/01/03 00:58:51;;;;;;;3.45;1.60;;;;;;;;;;4970927;28;20548;-76
2022/01/03 01:01:17;;;;;;;6.82;1.73;;;;;;;;;;4969210;28;20047;-78
2022/01/03 01:03:42;;;;;;;4.32;1.70;;;;;;;;;;4972813;28;20078;-78
2022/01/03 01:06:08;;;;;;;3.08;1.60;;;;;;;;;;4967571;28;20382;-78
2022/01/03 01:08:35;;;;;;;4.95;1.58;;;;;;;;;;4971965;28;20023;-77
2022/01/03 01:11:01;;;;;;;4.57;1.40;;;;;;;;;;4969303;28;20386;-78
2022/01/03 01:13:26;;;;;;;3.88;1.45;;;;;;;;;;4970582;28;20035;-78
2022/01/03 01:15:52;;;;;;;3.95;1.70;;;;;;;;;;4970121;28;20234;-78
2022/01/03 01:18:17;;;;;;;4.05;1.55;;;;;;;;;;4970759;28;20533;-79
2022/01/03 01:20:43;;;;;;;3.45;1.48;;;;;;;;;;4969542;28;20544;-77
2022/01/03 01:23:09;;;;;;;4.15;1.60;;;;;;;;;;4970827;28;20086;-77
2022/01/03 01:28:00;;;;;;;3.67;1.40;;;;;;;;;;4968676;28;20282;-77
2022/01/03 01:30:26;;;;;;;4.20;1.90;;;;;;;;;;4969795;28;20029;-77
2022/01/03 01:32:54;;;;;;;3.30;1.65;;;;;;;;;;4969843;28;20053;-77
2022/01/03 01:35:22;;;;;;;2.40;1.33;;;;;;;;;;4962907;28;20130;-78
2022/01/03 01:37:48;;;;;;;3.42;1.42;;;;;;;;;;4966283;28;20027;-79
2022/01/03 01:40:14;;;;;;;6.32;1.42;;;;;;;;;;4970272;28;20030;-77
2022/01/03 01:42:43;;;;;;;3.80;1.20;;;;;;;;;;4969089;28;20051;-78
2022/01/03 01:45:09;;;;;;;4.05;1.40;;;;;;;;;;4961805;28;20023;-77
2022/01/03 01:47:37;;;;;;;3.03;1.50;;;;;;;;;;4968816;28;20027;-78
2022/01/03 01:50:04;;;;;;;2.97;1.33;;;;;;;;;;4968734;28;20475;-78
2022/01/03 01:52:33;;;;;;;3.78;1.73;;;;;;;;;;4970463;28;20178;-77
2022/01/03 01:55:00;;;;;;;4.00;1.10;;;;;;;;;;4969679;28;20031;-77
2022/01/03 01:57:43;;;;;;;4.88;1.27;;;;;;;;;;4967691;28;20018;-78
2022/01/03 02:00:10;;;;;;;5.28;1.30;;;;;;;;;;4968316;28;20031;-79
2022/01/03 02:02:37;;;;;;;5.70;1.40;;;;;;;;;;4970013;28;20490;-77
2022/01/03 02:05:02;;;;;;;2.50;1.30;;;;;;;;;;4962778;28;20022;-78
2022/01/03 02:07:46;;;;;;;3.15;1.15;;;;;;;;;;4967690;28;20031;-78
2022/01/03 02:10:12;;;;;;;4.45;1.30;;;;;;;;;;4968717;28;20282;-78
2022/01/03 02:12:39;;;;;;;6.53;1.60;;;;;;;;;;4965822;28;20458;-78
2022/01/03 02:15:08;;;;;;;5.90;1.38;;;;;;;;;;4969989;28;20046;-79
2022/01/03 02:17:33;;;;;;;2.75;1.50;;;;;;;;;;4968261;28;20022;-78
2022/01/03 02:20:09;;;;;;;5.25;1.30;;;;;;;;;;4969699;28;20057;-78
2022/01/03 02:22:35;;;;;;;3.78;1.27;;;;;;;;;;4967243;28;20043;-77
2022/01/03 02:25:01;;;;;;;4.82;1.45;;;;;;;;;;4970174;28;20555;-77
2022/01/03 02:27:26;;;;;;;3.25;1.20;;;;;;;;;;4967071;28;20046;-76
2022/01/03 02:29:51;;;;;;;4.88;1.38;;;;;;;;;;4964887;28;20454;-77
2022/01/03 02:32:16;;;;;;;2.78;1.00;;;;;;;;;;4967810;28;20475;-77
2022/01/03 02:34:42;;;;;;;3.58;1.10;;;;;;;;;;4969674;28;20027;-76
2022/01/03 02:37:07;;;;;;;3.05;1.23;;;;;;;;;;4966151;28;20383;-78
2022/01/03 02:39:33;;;;;;;3.22;1.20;;;;;;;;;;4970526;28;20058;-77
2022/01/03 02:41:58;;;;;;;5.63;1.42;;;;;;;;;;4974997;28;20438;-76
2022/01/03 02:44:23;;;;;;;4.15;1.33;;;;;;;;;;4980435;28;20026;-77
2022/01/03 02:46:48;;;;;;;3.40;1.65;;;;;;;;;;4978756;28;20042;-78
2022/01/03 02:49:14;;;;;;;3.72;1.23;;;;;;;;;;4971166;28;20054;-77
2022/01/03 02:51:42;;;;;;;4.43;1.42;;;;;;;;;;4968339;28;20075;-77
2022/01/03 02:54:07;;;;;;;3.40;1.33;;;;;;;;;;4963695;28;20028;-78
2022/01/03 02:56:33;;;;;;;5.18;1.33;;;;;;;;;;4970007;28;20039;-78
2022/01/03 02:58:59;;;;;;;4.82;1.15;;;;;;;;;;4968912;28;20083;-77
2022/01/03 03:01:24;;;;;;;5.38;1.40;;;;;;;;;;4965449;28;20113;-77
2022/01/03 03:03:50;;;;;;;4.68;1.67;;;;;;;;;;4971523;28;20496;-77
2022/01/03 03:06:16;;;;;;;2.90;1.40;;;;;;;;;;4967632;28;20041;-78
2022/01/03 03:08:41;;;;;;;4.32;1.38;;;;;;;;;;4971606;28;20561;-77
2022/01/03 03:11:06;;;;;;;4.25;1.17;;;;;;;;;;4970347;28;20027;-78
2022/01/03 03:13:32;;;;;;;4.13;1.40;;;;;;;;;;4966154;28;20026;-79
2022/01/03 03:15:58;;;;;;;4.00;1.00;;;;;;;;;;4970049;28;20042;-77
2022/01/03 03:18:23;;;;;;;3.42;1.20;;;;;;;;;;4970906;28;20876;-77
2022/01/03 03:20:49;;;;;;;5.18;1.20;;;;;;;;;;4967686;28;20027;-78
2022/01/03 03:23:14;;;;;;;3.53;1.25;;;;;;;;;;4968236;28;20026;-77
2022/01/03 03:25:40;;;;;;;3.85;1.27;;;;;;;;;;4969986;28;20742;-78
2022/01/03 03:28:10;;;;;;;4.85;1.17;;;;;;;;;;4968835;28;20085;-78
2022/01/03 03:30:37;;;;;;;4.72;1.10;;;;;;;;;;4963487;28;20023;-78
2022/01/03 03:33:13;;;;;;;4.80;1.40;;;;;;;;;;4969241;28;20063;-78
2022/01/03 03:35:39;;;;;;;3.00;0.90;;;;;;;;;;4969477;28;20092;-77
2022/01/03 03:38:05;;;;;;;4.82;1.10;;;;;;;;;;4969020;28;20409;-77
2022/01/03 03:40:30;;;;;;;4.28;1.30;;;;;;;;;;4967618;28;20084;-78
2022/01/03 03:42:55;;;;;;;4.43;1.27;;;;;;;;;;4969114;28;20030;-77
2022/01/03 03:45:21;;;;;;;5.45;1.45;;;;;;;;;;4972649;28;20101;-77
2022/01/03 03:47:46;;;;;;;3.25;1.17;;;;;;;;;;4973486;28;20019;-78
2022/01/03 03:50:11;;;;;;;3.97;1.20;;;;;;;;;;4970896;28;20058;-77
2022/01/03 03:52:37;;;;;;;5.28;1.20;;;;;;;;;;4966060;28;20426;-77
2022/01/03 03:55:02;;;;;;;5.07;1.85;;;;;;;;;;4972665;28;20031;-76
2022/01/03 03:57:27;;;;;;;5.47;1.02;;;;;;;;;;4972207;28;20042;-79
2022/01/03 03:59:53;;;;;;;4.03;1.13;;;;;;;;;;4966598;28;20106;-77
2022/01/03 04:02:18;;;;;;;6.38;2.08;;;;;;;;;;4967057;28;20517;-77
2022/01/03 04:04:43;;;;;;;3.38;1.17;;;;;;;;;;4971939;28;20030;-78
2022/01/03 04:07:08;;;;;;;4.90;1.60;;;;;;;;;;4972711;28;20039;-78
2022/01/03 04:09:33;;;;;;;4.82;1.65;;;;;;;;;;4963965;28;20034;-77
2022/01/03 04:11:59;;;;;;;5.22;1.33;;;;;;;;;;4967655;28;20030;-77
2022/01/03 04:14:24;;;;;;;4.90;1.25;;;;;;;;;;4970267;28;20065;-77
2022/01/03 04:16:49;;;;;;;6.30;1.33;;;;;;;;;;4972007;28;20378;-76
2022/01/03 04:19:15;;;;;;;5.40;1.33;;;;;;;;;;4973142;28;20097;-77
2022/01/03 04:21:40;;;;;;;5.95;1.40;;;;;;;;;;4971867;28;20037;-78
2022/01/03 04:24:10;;;;;;;4.68;1.63;;;;;;;;;;4969045;28;20311;-77
2022/01/03 04:26:35;;;;;;;6.32;1.27;;;;;;;;;;4972401;28;20050;-79
2022/01/03 04:29:01;;;;;;;2.53;1.00;;;;;;;;;;4968271;28;20079;-76
2022/01/03 04:31:26;;;;;;;2.80;1.20;;;;;;;;;;4967106;28;20030;-77
2022/01/03 04:33:51;;;;;;;5.82;1.42;;;;;;;;;;4972163;28;20034;-78
2022/01/03 04:36:16;;;;;;;5.40;1.65;;;;;;;;;;4970979;28;20031;-77
2022/01/03 04:38:42;;;;;;;4.20;1.25;;;;;;;;;;4972598;28;20389;-78
2022/01/03 04:41:09;;;;;;;3.17;1.00;;;;;;;;;;4970885;28;20034;-77
2022/01/03 04:43:34;;;;;;;4.05;1.08;;;;;;;;;;4971015;28;20022;-78
2022/01/03 04:45:59;;;;;;;5.78;1.20;;;;;;;;;;4959712;28;20023;-77
2022/01/03 04:48:24;;;;;;;5.75;1.40;;;;;;;;;;4965852;28;20048;-77
2022/01/03 04:50:50;;;;;;;4.28;1.23;;;;;;;;;;4966194;28;20027;-76
2022/01/03 04:53:15;;;;;;;4.65;1.10;;;;;;;;;;4969723;28;20792;-78
2022/01/03 04:55:40;;;;;;;5.63;1.40;;;;;;;;;;4967265;28;20019;-78
2022/01/03 04:58:06;;;;;;;5.72;1.20;;;;;;;;;;4970243;28;20015;-77
2022/01/03 05:00:31;;;;;;;5.15;1.42;;;;;;;;;;4966779;28;20030;-78
2022/01/03 05:02:56;;;;;;;4.43;0.95;;;;;;;;;;4968272;28;20125;-78
2022/01/03 05:05:22;;;;;;;3.97;1.10;;;;;;;;;;4969915;28;20651;-77
2022/01/03 05:07:47;;;;;;;7.00;1.40;;;;;;;;;;4971368;28;20060;-78
2022/01/03 05:10:12;;;;;;;3.22;1.15;;;;;;;;;;4968361;28;20019;-76
2022/01/03 05:12:37;;;;;;;5.28;1.38;;;;;;;;;;4971424;28;20059;-77
2022/01/03 05:15:03;;;;;;;3.47;1.02;;;;;;;;;;4971194;28;20065;-77
2022/01/03 05:17:29;;;;;;;3.83;1.25;;;;;;;;;;4969070;28;20042;-76
2022/01/03 05:19:54;;;;;;;6.03;1.23;;;;;;;;;;4970131;28;20022;-78
2022/01/03 05:22:19;;;;;;;4.35;1.20;;;;;;;;;;4965075;28;20039;-77
2022/01/03 05:24:45;;;;;;;6.25;1.73;;;;;;;;;;4967475;28;20034;-77
2022/01/03 05:27:10;;;;;;;3.08;0.90;;;;;;;;;;4964636;28;20597;-76
2022/01/03 05:29:35;;;;;;;3.80;0.90;;;;;;;;;;4971041;28;20018;-77
2022/01/03 05:32:00;;;;;;;4.10;1.30;;;;;;;;;;4971314;28;20390;-77
2022/01/03 05:34:26;;;;;;;6.00;1.27;;;;;;;;;;4969777;28;20402;-77
2022/01/03 05:36:51;;;;;;;6.20;1.30;;;;;;;;;;4968377;28;20030;-78
2022/01/03 05:39:17;;;;;;;5.13;1.33;;;;;;;;;;4972428;28;20078;-77
2022/01/03 05:41:42;;;;;;;3.17;1.38;;;;;;;;;;4970484;28;20038;-78
2022/01/03 05:44:07;;;;;;;5.38;1.73;;;;;;;;;;4969201;28;20497;-77
2022/01/03 05:46:33;;;;;;;3.30;1.35;;;;;;;;;;4970728;28;20019;-78
2022/01/03 05:48:58;;;;;;;4.57;1.20;;;;;;;;;;4965134;28;20438;-77
2022/01/03 05:51:24;;;;;;;7.05;1.52;;;;;;;;;;4963754;28;20117;-78
2022/01/03 05:53:49;;;;;;;6.25;1.38;;;;;;;;;;4970561;28;20034;-78
2022/01/03 05:56:14;;;;;;;4.55;1.20;;;;;;;;;;4970968;28;20030;-78
2022/01/03 05:58:39;;;;;;;4.88;1.30;;;;;;;;;;4967793;28;20019;-77
2022/01/03 06:01:04;;;;;;;5.70;1.33;;;;;;;;;;4969012;28;20035;-78
2022/01/03 06:03:35;;;;;;;6.80;1.67;;;;;;;;;;4970403;28;20173;-78
2022/01/03 06:08:26;;;;;;;5.32;1.02;;;;;;;;;;4969693;28;20419;-76
2022/01/03 06:10:51;;;;;;;5.95;1.27;;;;;;;;;;4966316;28;20388;-77
2022/01/03 06:13:17;;;;;;;7.57;1.23;;;;;;;;;;4969757;28;20029;-79
2022/01/03 06:15:43;;;;;;;5.57;1.30;;;;;;;;;;4968152;28;20050;-78
2022/01/03 06:18:12;;;;;;;5.50;1.67;;;;;;;;;;4970341;28;20027;-77
2022/01/03 06:20:38;;;;;;;10.50;1.67;;;;;;;;;;4966124;28;20425;-78
2022/01/03 06:23:03;;;;;;;5.70;1.27;;;;;;;;;;4969845;28;20042;-77
2022/01/03 06:25:28;;;;;;;5.85;1.10;;;;;;;;;;4963161;28;20027;-77
2022/01/03 06:27:53;;;;;;;4.72;1.08;;;;;;;;;;4966601;28;20031;-77
2022/01/03 06:30:18;;;;;;;5.65;1.05;;;;;;;;;;4961917;28;20031;-77
2022/01/03 06:32:44;;;;;;;6.03;1.25;;;;;;;;;;4967456;28;20666;-77
2022/01/03 06:35:09;;;;;;;6.72;1.17;;;;;;;;;;4970089;28;20023;-77
2022/01/03 06:37:34;;;;;;;6.28;1.23;;;;;;;;;;4972446;28;20101;-79
2022/01/03 06:39:59;;;;;;;8.25;1.60;;;;;;;;;;4969042;28;20309;-77
2022/01/03 06:42:24;;;;;;;7.68;1.33;;;;;;;;;;4969147;28;20042;-78
2022/01/03 06:44:50;;;;;;;5.18;1.13;;;;;;;;;;4966511;28;20465;-78
2022/01/03 06:47:15;;;;;;;5.55;1.10;;;;;;;;;;4969723;28;20034;-78
2022/01/03 06:49:41;;;;;;;5.75;0.98;;;;;;;;;;4970183;28;20382;-78
2022/01/03 06:52:06;;;;;;;2.58;1.08;;;;;;;;;;4967064;28;20030;-78
2022/01/03 06:54:33;;;;;;;8.50;1.10;;;;;;;;;;4970504;28;20355;-77
2022/01/03 06:56:58;;;;;;;5.03;1.23;;;;;;;;;;4966894;28;20552;-78
2022/01/03 06:59:23;;;;;;;2.92;1.00;;;;;;;;;;4968236;28;20109;-77
2022/01/03 07:01:48;;;;;;;6.28;1.50;;;;;;;;;;4970352;28;20046;-77
2022/01/03 07:04:13;;;;;;;6.18;1.33;;;;;;;;;;4971082;28;20053;-78
2022/01/03 07:06:39;;;;;;;3.15;0.82;;;;;;;;;;4969259;28;20386;-78
2022/01/03 07:09:06;;;;;;;5.78;1.08;;;;;;;;;;4969597;28;20010;-78
2022/01/03 07:11:32;;;;;;;3.75;1.10;;;;;;;;;;4963535;28;20034;-77
2022/01/03 07:14:05;;;;;;;6.03;1.88;;;;;;;;;;4968988;28;20485;-77
2022/01/03 07:19:14;;;;;;;4.50;1.20;;;;;;;;;;4969774;28;20039;-77
2022/01/03 07:21:39;;;;;;;6.43;1.15;;;;;;;;;;4972567;28;20051;-77
2022/01/03 07:24:04;;;;;;;3.70;1.30;;;;;;;;;;4972224;28;20110;-77
2022/01/03 07:26:29;;;;;;;4.38;1.20;;;;;;;;;;4971825;28;20109;-78
2022/01/03 07:28:55;;;;;;;4.40;1.17;;;;;;;;;;4955524;28;20066;-79
2022/01/03 07:31:20;;;;;;;5.68;1.20;;;;;;;;;;4973250;28;20039;-80
2022/01/03 07:33:46;;;;;;;5.03;1.10;;;;;;;;;;4974382;28;20023;-79
2022/01/03 07:36:11;;;;;;;4.88;1.00;;;;;;;;;;4968403;28;20134;-78
2022/01/03 07:38:38;;;;;;;2.60;1.02;;;;;;;;;;4975922;28;20094;-77
2022/01/03 07:41:03;;;;;;;5.60;1.50;;;;;;;;;;4973003;28;20128;-78
2022/01/03 07:43:29;;;;;;;4.68;1.15;;;;;;;;;;4972661;28;20030;-77
2022/01/03 07:45:54;;;;;;;4.88;1.00;;;;;;;;;;4972332;28;20031;-77
2022/01/03 07:48:19;;;;;;;7.18;1.17;;;;;;;;;;4968335;28;20027;-78
2022/01/03 07:50:44;;;;;;;4.25;1.23;;;;;;;;;;4967754;28;20018;-76
2022/01/03 07:53:10;;;;;;;3.78;1.10;;;;;;;;;;4972986;28;20023;-78
2022/01/03 07:55:35;;;;;;;6.28;1.35;;;;;;;;;;4973217;28;20023;-77
2022/01/03 07:58:00;;;;;;;4.15;1.05;;;;;;;;;;4973141;28;20644;-78
2022/01/03 08:00:25;;;;;;;6.53;1.50;;;;;;;;;;4968034;28;20066;-77
2022/01/03 08:02:51;;;;;;;4.00;1.38;;;;;;;;;;4972529;28;20508;-78
2022/01/03 08:05:16;;;;;;;4.57;1.17;;;;;;;;;;4973245;28;20019;-77
2022/01/03 08:07:42;;;;;;;4.90;1.10;;;;;;;;;;4972734;28;20210;-78
2022/01/03 08:10:08;;;;;;;5.15;1.25;;;;;;;;;;4965477;28;20023;-77
2022/01/03 08:12:34;;;;;;;3.53;0.90;;;;;;;;;;4973243;28;20429;-78
2022/01/03 08:14:59;;;;;;;3.20;1.08;;;;;;;;;;4973516;28;20109;-77
2022/01/03 08:17:24;;;;;;;4.88;1.20;;;;;;;;;;4973332;28;20122;-79
2022/01/03 08:19:49;;;;;;;3.92;1.17;;;;;;;;;;4973258;28;20027;-78
2022/01/03 08:22:15;;;;;;;7.97;1.55;;;;;;;;;;4973115;28;20070;-77
2022/01/03 08:24:40;;;;;;;6.30;1.20;;;;;;;;;;4975057;28;20485;-77
2022/01/03 08:27:05;;;;;;;6.70;1.17;;;;;;;;;;4978068;28;20113;-79
2022/01/03 08:29:30;;;;;;;6.68;1.27;;;;;;;;;;4972379;28;20481;-77
2022/01/03 08:31:56;;;;;;;4.10;1.25;;;;;;;;;;4972971;28;20034;-78
2022/01/03 08:34:21;;;;;;;3.38;1.17;;;;;;;;;;4972749;28;20034;-78
2022/01/03 08:36:46;;;;;;;9.13;1.30;;;;;;;;;;4971371;28;20030;-77
2022/01/03 08:39:11;;;;;;;4.85;1.42;;;;;;;;;;4973554;28;20027;-78
2022/01/03 08:41:37;;;;;;;5.68;0.82;;;;;;;;;;4971505;28;20035;-77
2022/01/03 08:44:02;;;;;;;5.68;1.25;;;;;;;;;;4972403;28;20022;-78
2022/01/03 08:46:27;;;;;;;5.43;1.10;;;;;;;;;;4972489;28;20055;-78
2022/01/03 08:48:54;;;;;;;5.40;1.17;;;;;;;;;;4972472;28;20386;-78
2022/01/03 08:51:19;;;;;;;6.78;1.10;;;;;;;;;;4970398;28;20041;-76
2022/01/03 08:53:44;;;;;;;5.70;1.02;;;;;;;;;;4972475;28;20022;-78
2022/01/03 08:56:09;;;;;;;3.85;1.08;;;;;;;;;;4972998;28;20026;-78
2022/01/03 08:58:34;;;;;;;4.07;0.90;;;;;;;;;;4972817;28;20054;-77
2022/01/03 09:01:00;;;;;;;6.78;1.13;;;;;;;;;;4970193;28;20042;-80
2022/01/03 09:03:25;;;;;;;4.22;0.77;;;;;;;;;;4972417;28;20061;-78
2022/01/03 09:05:53;;;;;;;2.88;0.93;;;;;;;;;;4972278;28;20113;-79
2022/01/03 09:08:18;;;;;;;3.63;1.00;;;;;;;;;;4972388;28;20442;-79
2022/01/03 09:10:43;;;;;;;3.17;1.00;;;;;;;;;;4971954;28;20019;-78
2022/01/03 09:13:08;;;;;;;5.90;1.38;;;;;;;;;;4972318;28;20097;-78
2022/01/03 09:15:34;;;;;;;4.38;1.45;;;;;;;;;;4971209;28;20047;-78
2022/01/03 09:17:59;;;;;;;2.65;0.73;;;;;;;;;;4972405;28;20399;-78
2022/01/03 09:20:24;;;;;;;4.28;1.13;;;;;;;;;;4971681;28;20044;-78
2022/01/03 09:22:53;;;;;;;2.55;0.80;;;;;;;;;;4972068;28;20042;-78
2022/01/03 09:30:32;;;;;;;2.70;0.88;;;;;;;;;;4968796;28;20034;-78
2022/01/03 09:32:59;;;;;;;6.72;1.08;;;;;;;;;;4972277;28;20050;-78
2022/01/03 09:35:24;;;;;;;4.68;1.00;;;;;;;;;;4975208;28;20023;-78
2022/01/03 09:37:49;;;;;;;4.07;1.00;;;;;;;;;;4980492;28;20041;-79
2022/01/03 09:40:15;;;;;;;3.45;0.90;;;;;;;;;;4975745;28;20104;-77
2022/01/03 09:42:42;;;;;;;2.40;0.82;;;;;;;;;;4975160;28;20111;-79
2022/01/03 09:45:08;;;;;;;3.30;0.63;;;;;;;;;;4973903;28;20463;-79
2022/01/03 09:47:36;;;;;;;6.00;0.80;;;;;;;;;;4973564;28;20026;-78
2022/01/03 09:50:01;;;;;;;4.93;0.82;;;;;;;;;;4973091;28;20093;-79
2022/01/03 09:52:27;;;;;;;3.72;1.00;;;;;;;;;;4973041;28;20039;-79
2022/01/03 09:54:54;;;;;;;3.63;1.17;;;;;;;;;;4961428;28;20030;-80
2022/01/03 09:57:20;;;;;;;4.22;0.90;;;;;;;;;;4972359;28;20569;-78
2022/01/03 09:59:46;;;;;;;3.92;0.80;;;;;;;;;;4971880;28;20034;-78
2022/01/03 10:02:13;;;;;;;6.05;1.15;;;;;;;;;;4968470;28;20043;-79
2022/01/03 10:04:39;;;;;;;4.63;1.23;;;;;;;;;;4964602;28;20030;-74
2022/01/03 10:07:07;;;;;;;5.63;0.80;;;;;;;;;;4970845;28;20027;-73
2022/01/03 10:09:33;;;;;;;3.25;0.90;;;;;;;;;;4978326;28;20023;-75
2022/01/03 10:11:58;;;;;;;2.28;0.93;;;;;;;;;;4970246;28;20027;-75
2022/01/03 10:14:23;;;;;;;3.72;0.85;;;;;;;;;;4970046;28;20038;-71
2022/01/03 10:16:49;;;;;;;4.15;1.50;;;;;;;;;;4970936;28;20048;-72
2022/01/03 10:19:14;;;;;;;5.78;1.00;;;;;;;;;;4970027;28;20113;-71
2022/01/03 10:21:48;;;;;;;2.65;1.00;;;;;;;;;;4969166;28;20173;-71
2022/01/03 10:24:14;;;;;;;3.90;1.02;;;;;;;;;;4969816;28;20371;-70
2022/01/03 10:26:42;;;;;;;4.80;0.90;;;;;;;;;;4970099;28;20027;-73
2022/01/03 10:29:26;;;;;;;3.63;0.90;;;;;;;;;;4969892;28;20038;-71
2022/01/03 10:31:53;;;;;;;3.05;0.82;;;;;;;;;;4969414;28;20082;-71
2022/01/03 10:34:19;;;;;;;4.32;0.85;;;;;;;;;;4970514;28;20030;-71
2022/01/03 10:36:47;;;;;;;4.10;1.05;;;;;;;;;;4970434;28;20026;-71
2022/01/03 10:39:12;;;;;;;5.75;1.48;;;;;;;;;;4970461;28;20058;-71
2022/01/03 10:41:37;;;;;;;5.45;1.05;;;;;;;;;;4969276;28;20465;-70
2022/01/03 10:44:03;;;;;;;3.92;1.27;;;;;;;;;;4966222;28;20037;-71
2022/01/03 10:46:29;;;;;;;3.78;0.98;;;;;;;;;;4969864;28;20088;-71
2022/01/03 10:49:05;;;;;;;5.28;1.23;;;;;;;;;;4970360;28;20022;-71
2022/01/03 10:51:30;;;;;;;4.05;0.85;;;;;;;;;;4969301;28;20015;-71
2022/01/03 10:53:56;;;;;;;3.25;1.27;;;;;;;;;;4970448;28;20037;-72
2022/01/03 10:56:29;;;;;;;3.92;1.35;;;;;;;;;;4968131;28;20019;-71
2022/01/03 10:58:56;;;;;;;4.07;1.08;;;;;;;;;;4967892;28;20450;-71
2022/01/03 11:01:22;;;;;;;3.08;0.82;;;;;;;;;;4969118;28;20046;-71
2022/01/03 11:03:48;;;;;;;5.07;0.85;;;;;;;;;;4970110;28;20627;-70
2022/01/03 11:06:23;;;;;;;4.22;1.10;;;;;;;;;;4966854;28;20035;-70
2022/01/03 11:11:46;;;;;;;3.45;0.82;;;;;;;;;;4967086;28;20225;-72
2022/01/03 11:14:30;;;;;;;3.67;0.90;;;;;;;;;;4969122;28;20482;-72
2022/01/03 11:16:55;;;;;;;4.68;1.10;;;;;;;;;;4968441;28;20057;-73
2022/01/03 11:19:39;;;;;;;4.65;1.10;;;;;;;;;;4968269;28;20030;-71
2022/01/03 11:22:04;;;;;;;4.05;0.90;;;;;;;;;;4970115;28;20122;-70
2022/01/03 11:24:30;;;;;;;5.63;0.95;;;;;;;;;;4969422;28;20122;-71
2022/01/03 11:26:55;;;;;;;4.57;1.20;;;;;;;;;;4969602;28;20082;-71
2022/01/03 11:29:21;;;;;;;2.63;0.85;;;;;;;;;;4968960;28;20634;-72
2022/01/03 11:31:49;;;;;;;3.78;1.13;;;;;;;;;;4969956;28;20105;-73
2022/01/03 11:34:15;;;;;;;6.97;1.10;;;;;;;;;;4968166;28;20575;-72
2022/01/03 11:36:41;;;;;;;4.82;1.30;;;;;;;;;;4968429;28;20454;-72
2022/01/03 11:39:08;;;;;;;4.30;1.20;;;;;;;;;;4968219;28;20023;-71
2022/01/03 11:41:34;;;;;;;3.90;0.90;;;;;;;;;;4968666;28;20526;-72
2022/01/03 11:43:59;;;;;;;4.43;1.13;;;;;;;;;;4970139;28;20184;-71
2022/01/03 11:46:25;;;;;;;3.95;0.88;;;;;;;;;;4969663;28;20031;-72
2022/01/03 11:48:50;;;;;;;3.25;0.98;;;;;;;;;;4968239;28;20058;-70
2022/01/03 11:51:16;;;;;;;3.25;0.80;;;;;;;;;;4969118;28;20085;-71
2022/01/03 11:53:45;;;;;;;3.58;1.00;;;;;;;;;;4969715;28;20037;-71
2022/01/03 11:56:14;;;;;;;6.68;1.65;;;;;;;;;;4969156;28;20023;-71
2022/01/03 11:59:07;;;;;;;4.15;1.00;;;;;;;;;;4969674;28;20027;-72
2022/01/03 12:04:27;;;;;;;4.32;0.90;;;;;;;;;;4973254;28;20503;-72
2022/01/03 12:07:12;;;;;;;3.58;0.80;;;;;;;;;;4972537;28;20030;-71
2022/01/03 12:09:38;;;;;;;4.32;1.10;;;;;;;;;;4974973;28;20069;-71
2022/01/03 12:12:05;;;;;;;5.15;0.80;;;;;;;;;;4972618;28;20425;-71
2022/01/03 12:14:40;;;;;;;6.63;1.05;;;;;;;;;;4972620;28;20146;-71
2022/01/03 12:17:06;;;;;;;4.82;1.13;;;;;;;;;;4971229;28;20103;-72
2022/01/03 12:19:32;;;;;;;7.50;0.85;;;;;;;;;;4972399;28;20089;-66
2022/01/03 12:22:06;;;;;;;3.35;0.90;;;;;;;;;;4968886;28;20027;-66
2022/01/03 12:24:34;;;;;;;3.72;0.70;;;;;;;;;;4968064;28;20119;-65
2022/01/03 12:27:15;;;;;;;3.60;0.90;;;;;;;;;;4962941;28;20027;-67
2022/01/03 12:32:23;;;;;;;4.20;1.13;;;;;;;;;;4957972;28;20035;-65
2022/01/03 12:35:10;;;;;;;2.03;0.95;;;;;;;;;;4945455;28;20031;-65
2022/01/03 12:37:36;;;;;;;4.68;0.80;;;;;;;;;;4955714;28;20035;-65
2022/01/03 12:40:04;;;;;;;5.45;1.10;;;;;;;;;;4962240;28;20532;-66
2022/01/03 12:42:54;;;;;;;3.28;0.93;;;;;;;;;;4970985;28;20038;-66
2022/01/03 12:45:19;;;;;;;;;;;;;;;;;;4968601;28;20034;-66
2022/01/03 12:47:44;;;;;;;6.60;1.38;;;;;;;;;;4971747;28;19969;-65
2022/01/03 12:50:18;;;;;;;2.10;0.80;;;;;;;;;;4972084;28;20019;-66
2022/01/03 12:52:44;;;;;;;7.07;1.00;;;;;;;;;;4971366;28;20566;-66
2022/01/03 12:55:09;;;;;;;3.70;0.70;;;;;;;;;;4970253;28;20081;-65
2022/01/03 12:57:35;;;;;;;3.90;0.93;;;;;;;;;;4969942;28;20085;-66
2022/01/03 13:00:00;;;;;;;4.95;1.20;;;;;;;;;;4964237;28;20386;-66
2022/01/03 13:02:30;;;;;;;3.25;1.00;;;;;;;;;;4967337;28;20026;-65
2022/01/03 13:04:55;;;;;;;5.43;1.27;;;;;;;;;;4967191;28;20015;-65
2022/01/03 13:07:24;;;;;;;3.33;1.08;;;;;;;;;;4944567;28;20034;-66
2022/01/03 13:09:49;;;;;;;4.43;0.95;;;;;;;;;;4968932;28;20015;-65
2022/01/03 13:12:14;;;;;;;4.28;0.95;;;;;;;;;;4969467;28;20033;-66
2022/01/03 13:14:39;;;;;;;3.75;1.15;;;;;;;;;;4969567;28;20633;-66
2022/01/03 13:17:05;;;;;;;6.55;1.35;;;;;;;;;;4968849;28;20026;-66
2022/01/03 13:19:30;;;;;;;2.67;0.90;;;;;;;;;;4971163;28;20050;-66
2022/01/03 13:22:02;;;;;;;4.40;1.02;;;;;;;;;;4967483;28;20038;-65
2022/01/03 13:24:33;;;;;;;3.55;1.00;;;;;;;;;;4968106;28;20027;-66
2022/01/03 13:26:59;;;;;;;5.70;1.10;;;;;;;;;;4967591;28;20096;-66
2022/01/03 13:29:26;;;;;;;4.28;1.20;;;;;;;;;;4970025;28;20487;-66
2022/01/03 13:31:52;;;;;;;3.75;1.10;;;;;;;;;;4970000;28;20185;-67
2022/01/03 13:34:28;;;;;;;5.00;1.00;;;;;;;;;;4967043;28;20125;-67
2022/01/03 13:36:53;;;;;;;4.22;1.35;;;;;;;;;;4967196;28;20042;-66
2022/01/03 13:39:23;;;;;;;4.82;1.02;;;;;;;;;;4971651;28;20035;-66
2022/01/03 13:41:50;;;;;;;;;;;;;;;;;;4964975;28;20063;-67
2022/01/03 13:44:36;;;;;;;5.47;1.45;;;;;;;;;;4968838;28;19961;-67
2022/01/03 13:49:45;;;;;;;6.63;1.20;;;;;;;;;;4968346;28;20034;-66
2022/01/03 13:52:10;;;;;;;3.88;0.88;;;;;;;;;;4968630;28;20031;-67
2022/01/03 13:54:37;;;;;;;2.28;0.85;;;;;;;;;;4967584;28;20034;-65
2022/01/03 13:57:04;;;;;;;4.40;0.88;;;;;;;;;;4953717;28;20034;-66
2022/01/03 13:59:34;;;;;;;4.22;1.10;;;;;;;;;;4970047;28;20081;-66
2022/01/03 14:02:01;;;;;;;4.45;1.23;;;;;;;;;;4966716;28;20453;-66
2022/01/03 14:04:29;;;;;;;2.95;0.80;;;;;;;;;;4964643;28;20026;-66
2022/01/03 14:07:06;;;;;;;2.95;0.90;;;;;;;;;;4959250;28;20042;-67
2022/01/03 14:09:39;;;;;;;4.63;1.10;;;;;;;;;;4963146;28;20039;-66
2022/01/03 14:12:08;;;;;;;2.33;0.95;;;;;;;;;;4961245;28;20098;-66
2022/01/03 14:14:37;;;;;;;4.10;1.25;;;;;;;;;;4965882;28;20101;-66
2022/01/03 14:17:04;;;;;;;4.70;1.10;;;;;;;;;;4963665;28;20034;-64
2022/01/03 14:19:29;;;;;;;1.60;0.85;;;;;;;;;;4963642;28;20118;-66
2022/01/03 14:21:55;;;;;;;4.38;1.35;;;;;;;;;;4965747;28;20133;-66
2022/01/03 14:24:23;;;;;;;3.55;0.80;;;;;;;;;;4962899;28;20011;-66
2022/01/03 14:26:56;;;;;;;3.75;0.93;;;;;;;;;;4966295;28;20038;-66
2022/01/03 14:29:22;;;;;;;4.65;1.10;;;;;;;;;;4964144;28;20522;-66
2022/01/03 14:31:57;;;;;;;5.47;1.00;;;;;;;;;;4968183;28;20023;-66
2022/01/03 14:34:27;;;;;;;2.13;0.80;;;;;;;;;;4969539;28;20035;-66
2022/01/03 14:36:53;;;;;;;5.78;1.20;;;;;;;;;;4968405;28;20031;-65
2022/01/03 14:39:18;;;;;;;3.58;0.70;;;;;;;;;;4970675;28;20031;-66
2022/01/03 14:41:54;;;;;;;3.03;0.70;;;;;;;;;;4963944;28;20031;-65
2022/01/03 14:44:22;;;;;;;1.88;0.60;;;;;;;;;;4966472;28;20030;-66
2022/01/03 14:46:48;;;;;;;3.50;0.70;;;;;;;;;;4967607;28;20039;-66
2022/01/03 14:49:18;;;;;;;2.22;0.52;;;;;;;;;;4952043;28;20043;-65
2022/01/03 14:51:48;;;;;;;3.47;0.80;;;;;;;;;;4964985;28;20027;-66
2022/01/03 14:54:13;;;;;;;;;;;;;;;;;;4970859;28;20059;-66
2022/01/03 14:56:39;;;;;;;2.00;0.73;;;;;;;;;;4968442;28;20404;-67
2022/01/03 14:59:27;;;;;;;1.98;0.60;;;;;;;;;;4969881;28;20042;-66
2022/01/03 15:01:54;;;;;;;2.15;0.80;;;;;;;;;;4965229;28;20533;-66
2022/01/03 15:04:21;;;;;;;1.10;0.52;;;;;;;;;;4969396;28;20085;-65